Time;durP1;ratioP1;P1;durP2;ratioP2;P2;SDS_P1;SDS_P2;PMS_P1;PMS_P2;Temp;Humidity;BMP_temperature;BMP_pressure;BME280_temperature;BME280_humidity;BME280_pressure;Samples;Min_cycle;Max_cycle;Signal;HPM_P1;HPM_P2
2022/04/13 00:00:59;;;;;;;3.53;2.92;;;;;;;21.85;37.23;101130.66;5072991;28;20061;-75
2022/04/13 00:03:25;;;;;;;3.75;3.05;;;;;;;21.80;37.37;101125.09;5043957;28;20649;-74
2022/04/13 00:05:50;;;;;;;4.40;2.92;;;;;;;21.82;37.64;101125.75;5070328;28;20020;-74
2022/04/13 00:08:16;;;;;;;3.88;2.80;;;;;;;21.87;37.51;101129.47;5047950;28;20040;-75
2022/04/13 00:10:43;;;;;;;3.97;3.00;;;;;;;21.83;37.48;101124.72;5070956;28;20047;-74
2022/04/13 00:13:08;;;;;;;4.03;3.08;;;;;;;21.74;37.39;101120.56;5037821;28;20755;-75
2022/04/13 00:15:34;;;;;;;4.10;3.38;;;;;;;21.81;37.43;101132.03;5071368;28;20040;-74
2022/04/13 00:18:04;;;;;;;4.45;2.97;;;;;;;21.80;37.43;101122.44;5036568;28;21107;-74
2022/04/13 00:20:30;;;;;;;4.60;2.95;;;;;;;21.78;37.15;101121.81;5069687;28;20036;-74
2022/04/13 00:22:56;;;;;;;3.97;3.05;;;;;;;21.80;37.63;101128.56;5063610;28;20038;-74
2022/04/13 00:25:21;;;;;;;5.20;3.45;;;;;;;21.80;37.60;101127.75;5055061;28;20052;-73
2022/04/13 00:27:47;;;;;;;4.63;3.03;;;;;;;21.76;37.45;101121.19;5071527;28;20040;-75
2022/04/13 00:30:12;;;;;;;3.78;3.15;;;;;;;21.77;37.66;101130.78;5023378;28;20574;-73
2022/04/13 00:32:38;;;;;;;4.25;3.05;;;;;;;21.76;37.45;101124.66;5056006;28;20516;-74
2022/04/13 00:35:04;;;;;;;4.40;3.10;;;;;;;21.80;37.34;101139.19;5045369;28;20528;-76
2022/04/13 00:37:31;;;;;;;4.53;3.08;;;;;;;21.74;37.44;101145.22;5074194;28;20752;-76
2022/04/13 00:39:56;;;;;;;3.78;2.90;;;;;;;21.77;37.46;101136.91;5041548;28;20044;-73
2022/04/13 00:42:22;;;;;;;3.85;3.10;;;;;;;21.80;37.43;101141.84;5071719;28;20686;-74
2022/04/13 00:44:48;;;;;;;3.85;2.75;;;;;;;21.79;37.54;101142.84;5036657;28;20036;-74
2022/04/13 00:47:14;;;;;;;4.95;3.20;;;;;;;21.80;37.35;101157.72;5073259;28;20036;-73
2022/04/13 00:49:40;;;;;;;3.72;3.05;;;;;;;21.73;37.19;101153.38;5014016;28;20044;-74
2022/04/13 00:52:07;;;;;;;5.03;3.00;;;;;;;21.67;37.34;101158.38;5074665;28;20032;-73
2022/04/13 00:54:34;;;;;;;4.45;3.00;;;;;;;21.76;37.25;101158.28;5042190;28;20040;-74
2022/04/13 00:57:06;;;;;;;3.60;2.80;;;;;;;21.75;37.25;101161.97;5054862;28;20035;-74
2022/04/13 00:59:35;;;;;;;4.38;3.30;;;;;;;21.74;37.20;101155.84;5038794;28;20052;-74
2022/04/13 01:02:01;;;;;;;3.08;2.72;;;;;;;21.77;37.42;101158.09;5071998;28;20129;-73
2022/04/13 01:04:29;;;;;;;4.20;3.00;;;;;;;21.73;37.10;101163.97;5042229;28;20037;-73
2022/04/13 01:06:54;;;;;;;4.65;3.20;;;;;;;21.73;37.29;101166.63;5072948;28;20093;-74
2022/04/13 01:09:23;;;;;;;4.45;2.97;;;;;;;21.71;37.44;101172.06;5050035;28;20123;-73
2022/04/13 01:11:48;;;;;;;4.05;3.10;;;;;;;21.73;37.22;101178.03;5071957;28;20037;-74
2022/04/13 01:14:14;;;;;;;3.65;3.20;;;;;;;21.70;37.30;101173.91;5044817;28;20149;-75
2022/04/13 01:16:40;;;;;;;3.63;3.10;;;;;;;21.55;37.26;101157.22;5072455;28;20394;-74
2022/04/13 01:19:07;;;;;;;4.13;3.20;;;;;;;21.74;37.36;101168.25;5046407;28;20044;-73
2022/04/13 01:21:47;;;;;;;3.30;3.00;;;;;;;21.42;37.18;101125.22;5073092;28;20430;-73
2022/04/13 01:24:13;;;;;;;;;;;;;;;21.70;37.35;101179.22;5030103;28;20036;-73
2022/04/13 01:26:39;;;;;;;3.72;3.10;;;;;;;21.72;37.11;101173.72;5056708;28;19962;-74
2022/04/13 01:29:05;;;;;;;3.92;2.95;;;;;;;21.68;37.35;101183.88;5022423;28;20864;-73
2022/04/13 01:31:34;;;;;;;3.65;2.90;;;;;;;21.68;37.39;101183.06;5051414;28;20040;-74
2022/04/13 01:34:00;;;;;;;4.38;3.35;;;;;;;21.73;37.31;101182.53;5046011;28;20028;-74
2022/04/13 01:36:27;;;;;;;4.05;3.08;;;;;;;21.70;37.28;101179.22;5070127;28;20032;-74
2022/04/13 01:38:52;;;;;;;4.10;3.08;;;;;;;21.66;37.25;101177.13;5027927;28;20043;-74
2022/04/13 01:41:18;;;;;;;5.03;3.25;;;;;;;21.61;37.28;101192.75;5054359;28;20182;-74
2022/04/13 01:43:43;;;;;;;5.80;3.25;;;;;;;21.48;37.29;101177.47;5004848;28;20128;-74
2022/04/13 01:46:09;;;;;;;3.95;2.97;;;;;;;21.57;37.42;101188.81;5071583;28;20550;-73
2022/04/13 01:48:35;;;;;;;3.80;3.33;;;;;;;21.62;37.34;101184.63;5043514;28;20067;-73
2022/04/13 01:51:00;;;;;;;4.85;3.15;;;;;;;21.66;37.15;101193.03;5072633;28;20093;-74
2022/04/13 01:53:26;;;;;;;3.40;3.10;;;;;;;21.54;37.16;101182.03;5036661;28;20028;-74
2022/04/13 01:55:53;;;;;;;4.40;3.40;;;;;;;21.63;37.30;101194.22;5070825;28;20032;-74
2022/04/13 01:58:22;;;;;;;5.10;3.25;;;;;;;21.66;37.11;101199.13;5038580;28;20039;-75
2022/04/13 02:00:53;;;;;;;4.07;2.83;;;;;;;21.66;37.32;101196.50;5059601;28;20484;-74
2022/04/13 02:03:23;;;;;;;3.50;3.20;;;;;;;21.67;37.20;101200.78;5056133;28;20043;-73
2022/04/13 02:05:50;;;;;;;4.07;2.78;;;;;;;21.61;37.20;101203.34;5037302;28;20047;-74
2022/04/13 02:08:16;;;;;;;3.55;2.92;;;;;;;21.63;37.07;101204.00;5056172;28;20044;-73
2022/04/13 02:10:41;;;;;;;3.90;3.00;;;;;;;21.59;37.19;101200.06;5041079;28;20047;-75
2022/04/13 02:13:07;;;;;;;3.88;2.80;;;;;;;21.60;37.35;101207.84;5069503;28;20055;-75
2022/04/13 02:15:33;;;;;;;5.25;3.55;;;;;;;21.61;37.08;101204.19;5039802;28;20040;-75
2022/04/13 02:17:58;;;;;;;4.18;2.97;;;;;;;21.58;37.19;101209.03;5071667;28;20047;-75
2022/04/13 02:20:24;;;;;;;3.80;2.70;;;;;;;21.58;37.25;101211.66;5039787;28;20367;-76
2022/04/13 02:22:50;;;;;;;4.07;3.20;;;;;;;21.59;37.17;101210.66;5073024;28;20120;-75
2022/04/13 02:25:15;;;;;;;3.17;2.78;;;;;;;21.54;37.19;101205.88;5011606;28;20040;-73
2022/04/13 02:27:42;;;;;;;3.40;2.83;;;;;;;21.54;37.39;101213.00;5053637;28;20036;-76
2022/04/13 02:30:08;;;;;;;3.40;2.80;;;;;;;21.54;37.19;101208.53;5036108;28;20421;-76
2022/04/13 02:32:43;;;;;;;3.58;3.05;;;;;;;21.60;37.53;101220.25;5071955;28;20060;-75
2022/04/13 02:35:08;;;;;;;5.03;3.20;;;;;;;21.55;37.35;101215.50;5038716;28;20035;-76
2022/04/13 02:37:34;;;;;;;5.18;3.03;;;;;;;21.57;37.00;101216.16;5073309;28;20031;-76
2022/04/13 02:39:59;;;;;;;5.22;3.35;;;;;;;21.57;37.15;101220.63;5040890;28;20043;-76
2022/04/13 02:42:34;;;;;;;4.40;3.17;;;;;;;21.52;37.18;101220.31;5073746;28;20052;-75
2022/04/13 02:45:00;;;;;;;3.65;3.00;;;;;;;21.56;37.12;101211.03;5018273;28;20043;-75
2022/04/13 02:47:25;;;;;;;4.55;3.15;;;;;;;21.55;37.42;101206.75;5068848;28;20073;-76
2022/04/13 02:49:51;;;;;;;3.65;3.05;;;;;;;21.51;37.34;101208.09;5035777;28;20036;-73
2022/04/13 02:52:16;;;;;;;5.10;3.33;;;;;;;21.49;37.19;101216.22;5068325;28;20537;-75
2022/04/13 02:54:42;;;;;;;4.03;3.15;;;;;;;21.56;37.31;101221.63;5034523;28;20596;-76
2022/04/13 02:57:07;;;;;;;4.63;3.08;;;;;;;21.50;37.16;101227.63;5068742;28;20096;-76
2022/04/13 02:59:33;;;;;;;3.80;3.10;;;;;;;21.47;37.18;101218.22;5020970;28;20669;-76
2022/04/13 03:01:59;;;;;;;3.67;3.22;;;;;;;21.51;37.33;101226.63;5041584;28;20497;-76
2022/04/13 03:04:24;;;;;;;3.75;3.00;;;;;;;21.49;37.31;101226.00;5069693;28;20105;-75
2022/04/13 03:06:50;;;;;;;4.65;3.20;;;;;;;21.46;37.50;101232.47;5035938;28;20068;-73
2022/04/13 03:09:15;;;;;;;3.90;3.00;;;;;;;21.51;37.22;101239.88;5072774;28;20032;-73
2022/04/13 03:11:41;;;;;;;3.70;3.15;;;;;;;21.31;37.52;101221.84;5037975;28;20041;-73
2022/04/13 03:14:06;;;;;;;4.60;3.25;;;;;;;21.46;37.26;101245.72;5068590;28;20044;-74
2022/04/13 03:16:32;;;;;;;5.43;3.50;;;;;;;21.42;37.19;101247.91;5020195;28;20066;-75
2022/04/13 03:18:57;;;;;;;3.85;3.05;;;;;;;21.39;37.25;101244.81;5067248;28;20044;-76
2022/04/13 03:21:24;;;;;;;4.38;3.22;;;;;;;21.45;37.22;101257.34;5036858;28;20455;-75
2022/04/13 03:23:50;;;;;;;3.92;2.80;;;;;;;21.45;37.23;101253.84;5074001;28;20039;-75
2022/04/13 03:26:16;;;;;;;3.20;2.90;;;;;;;21.36;37.34;101250.44;5042621;28;20048;-75
2022/04/13 03:28:41;;;;;;;4.07;3.33;;;;;;;21.41;37.47;101261.34;5071075;28;20565;-75
2022/04/13 03:31:07;;;;;;;4.68;3.63;;;;;;;21.29;37.48;101245.06;5019700;28;20048;-76
2022/04/13 03:33:32;;;;;;;3.05;2.80;;;;;;;21.42;37.32;101260.34;5069687;28;20482;-73
2022/04/13 03:35:58;;;;;;;4.18;3.28;;;;;;;21.36;37.28;101255.75;5034772;28;20114;-73
2022/04/13 03:38:23;;;;;;;3.75;3.13;;;;;;;21.39;37.24;101264.19;5070694;28;20063;-74
2022/04/13 03:40:49;;;;;;;3.70;3.20;;;;;;;21.39;37.33;101269.47;5040315;28;20522;-76
2022/04/13 03:43:14;;;;;;;4.18;3.20;;;;;;;21.31;37.39;101260.75;5065680;28;20040;-76
2022/04/13 03:45:40;;;;;;;4.63;3.33;;;;;;;21.42;37.48;101273.59;5008999;28;20032;-74
2022/04/13 03:48:05;;;;;;;3.85;3.15;;;;;;;21.22;37.45;101249.41;5051120;28;20074;-75
2022/04/13 03:50:31;;;;;;;3.55;3.25;;;;;;;21.42;37.27;101277.06;5048986;28;20574;-75
2022/04/13 03:52:57;;;;;;;4.30;3.45;;;;;;;21.36;37.35;101276.94;5056968;28;20127;-74
2022/04/13 03:55:22;;;;;;;4.38;3.22;;;;;;;21.37;37.33;101287.38;5068270;28;20044;-75
2022/04/13 03:57:51;;;;;;;5.70;3.53;;;;;;;21.37;37.35;101287.38;5045998;28;20040;-74
2022/04/13 04:00:17;;;;;;;4.00;3.17;;;;;;;21.37;37.35;101289.22;5064735;28;20048;-75
2022/04/13 04:02:43;;;;;;;3.58;3.10;;;;;;;21.26;37.32;101269.25;5014712;28;20039;-74
2022/04/13 04:05:10;;;;;;;4.03;3.35;;;;;;;21.34;37.35;101293.00;5070980;28;20032;-74
2022/04/13 04:07:36;;;;;;;3.88;3.20;;;;;;;21.40;37.25;101297.63;5035706;28;20043;-74
2022/04/13 04:10:04;;;;;;;4.97;3.22;;;;;;;21.30;37.41;101290.91;5068821;28;20032;-75
2022/04/13 04:12:29;;;;;;;4.63;4.05;;;;;;;21.35;37.53;101299.13;5044829;28;20042;-74
2022/04/13 04:15:00;;;;;;;4.10;2.97;;;;;;;21.33;37.52;101290.53;5049370;28;20073;-75
2022/04/13 04:17:26;;;;;;;5.00;3.20;;;;;;;21.37;37.52;101297.16;5042986;28;20719;-74
2022/04/13 04:19:51;;;;;;;5.32;3.30;;;;;;;21.31;37.29;101296.03;5072886;28;20057;-75
2022/04/13 04:22:17;;;;;;;4.90;3.15;;;;;;;21.30;37.25;101282.97;5038099;28;20040;-74
2022/04/13 04:24:43;;;;;;;3.53;3.03;;;;;;;21.27;37.42;101294.75;5070641;28;20036;-75
2022/04/13 04:27:08;;;;;;;3.92;3.15;;;;;;;21.27;37.55;101293.91;5041593;28;20064;-74
2022/04/13 04:29:35;;;;;;;4.63;3.08;;;;;;;21.19;37.43;101286.84;5067765;28;20041;-74
2022/04/13 04:32:02;;;;;;;4.15;3.40;;;;;;;21.12;37.62;101284.06;5024502;28;20508;-75
2022/04/13 04:34:27;;;;;;;4.10;3.10;;;;;;;21.18;37.75;101303.69;5055955;28;20529;-75
2022/04/13 04:36:53;;;;;;;4.70;3.10;;;;;;;21.17;37.64;101309.19;5024557;28;21259;-75
2022/04/13 04:39:18;;;;;;;3.97;3.22;;;;;;;21.10;37.89;101312.53;5069972;28;20043;-75
2022/04/13 04:41:45;;;;;;;3.40;3.10;;;;;;;21.08;37.57;101301.31;5051450;28;20044;-75
2022/04/13 04:44:10;;;;;;;3.97;3.30;;;;;;;21.06;37.72;101310.44;5065685;28;20433;-74
2022/04/13 04:46:37;;;;;;;4.55;3.50;;;;;;;20.91;37.85;101291.00;5055916;28;20025;-75
2022/04/13 04:49:03;;;;;;;3.78;3.10;;;;;;;21.01;37.85;101318.09;5045623;28;20028;-74
2022/04/13 04:51:31;;;;;;;4.43;3.20;;;;;;;21.01;37.91;101315.44;5067002;28;20581;-75
2022/04/13 04:53:58;;;;;;;4.57;3.15;;;;;;;20.90;38.11;101314.00;5032422;28;20716;-74
2022/04/13 04:56:23;;;;;;;3.65;3.10;;;;;;;20.98;38.10;101331.66;5075841;28;20177;-74
2022/04/13 04:58:49;;;;;;;4.15;3.25;;;;;;;20.94;38.05;101320.59;5047760;28;20130;-74
2022/04/13 05:01:14;;;;;;;4.07;3.42;;;;;;;20.99;38.02;101334.13;5070543;28;20072;-75
2022/04/13 05:03:43;;;;;;;4.53;3.22;;;;;;;20.94;38.18;101333.81;5029839;28;20032;-74
2022/04/13 05:06:09;;;;;;;4.50;3.28;;;;;;;20.99;37.99;101336.75;5073877;28;20391;-74
2022/04/13 05:08:35;;;;;;;5.28;3.42;;;;;;;20.97;38.09;101338.75;5042529;28;20048;-74
2022/04/13 05:11:01;;;;;;;4.43;3.15;;;;;;;20.97;37.94;101336.13;5048429;28;20068;-74
2022/04/13 05:13:26;;;;;;;4.72;3.47;;;;;;;20.97;38.08;101337.94;5041267;28;20040;-74
2022/04/13 05:15:53;;;;;;;3.78;3.10;;;;;;;21.03;37.85;101345.22;5068795;28;20130;-74
2022/04/13 05:18:19;;;;;;;3.67;3.17;;;;;;;21.03;37.68;101339.91;5041097;28;20031;-74
2022/04/13 05:20:45;;;;;;;4.20;3.30;;;;;;;21.03;37.76;101342.56;5069890;28;20066;-74
2022/04/13 05:23:10;;;;;;;3.83;3.10;;;;;;;21.03;37.71;101345.22;5041264;28;20044;-74
2022/04/13 05:25:36;;;;;;;5.55;3.22;;;;;;;21.03;37.76;101342.56;5072391;28;20044;-74
2022/04/13 05:28:01;;;;;;;3.88;3.38;;;;;;;21.08;37.75;101350.78;5038653;28;25519;-75
2022/04/13 05:30:27;;;;;;;3.70;2.97;;;;;;;21.08;37.73;101356.09;5050304;28;20047;-75
2022/04/13 05:33:03;;;;;;;5.05;3.30;;;;;;;21.05;37.66;101343.22;5048528;28;20085;-75
2022/04/13 05:35:29;;;;;;;3.83;3.40;;;;;;;21.14;37.80;101363.31;5068781;28;20056;-74
2022/04/13 05:37:55;;;;;;;3.97;3.17;;;;;;;21.09;37.45;101363.84;5044231;28;20051;-75
2022/04/13 05:40:23;;;;;;;5.78;3.63;;;;;;;21.06;37.61;101361.56;5067587;28;20089;-75
2022/04/13 05:42:50;;;;;;;4.50;3.33;;;;;;;21.12;37.66;101376.75;5049177;28;20043;-75
2022/04/13 05:45:17;;;;;;;3.80;3.25;;;;;;;21.12;37.72;101375.91;5056816;28;20048;-74
2022/04/13 05:47:43;;;;;;;4.75;3.28;;;;;;;21.12;37.52;101384.69;5057102;28;20067;-75
2022/04/13 05:50:10;;;;;;;3.83;2.97;;;;;;;21.14;37.61;101389.81;5036486;28;20059;-75
2022/04/13 05:52:36;;;;;;;4.43;2.97;;;;;;;21.05;37.68;101365.22;5066992;28;20052;-75
2022/04/13 05:55:03;;;;;;;4.90;3.28;;;;;;;21.27;37.65;101384.78;5036799;28;20527;-76
2022/04/13 05:57:28;;;;;;;5.57;3.50;;;;;;;21.39;37.10;101385.22;5069141;28;20048;-76
2022/04/13 05:59:54;;;;;;;3.80;2.95;;;;;;;21.69;36.90;101394.91;5020267;28;20065;-75
2022/04/13 06:02:19;;;;;;;4.28;3.25;;;;;;;22.12;36.09;101376.66;5067553;28;20043;-77
2022/04/13 06:04:45;;;;;;;3.65;2.88;;;;;;;22.88;34.91;101395.88;5014652;28;20057;-78
2022/04/13 06:07:11;;;;;;;3.80;3.05;;;;;;;23.17;34.76;101409.09;5070611;28;20036;-77
2022/04/13 06:09:36;;;;;;;5.95;2.97;;;;;;;23.23;34.57;101409.34;5027581;28;20039;-75
2022/04/13 06:12:02;;;;;;;3.70;3.13;;;;;;;23.09;34.79;101416.34;5074876;28;20048;-76
2022/04/13 06:14:28;;;;;;;3.70;3.03;;;;;;;22.91;35.06;101411.44;5041408;28;20047;-75
2022/04/13 06:16:53;;;;;;;3.90;3.10;;;;;;;22.72;35.56;101404.03;5073944;28;20102;-78
2022/04/13 06:19:19;;;;;;;4.97;3.05;;;;;;;22.57;35.71;101419.94;5044493;28;20056;-77
2022/04/13 06:21:44;;;;;;;3.40;2.67;;;;;;;22.45;36.12;101426.75;5072234;28;20039;-77
2022/04/13 06:24:10;;;;;;;3.60;2.97;;;;;;;22.32;36.54;101422.06;5044528;28;20047;-77
2022/04/13 06:26:36;;;;;;;4.45;3.03;;;;;;;22.20;36.63;101411.06;5072863;28;20478;-77
2022/04/13 06:29:01;;;;;;;3.83;2.83;;;;;;;22.21;36.77;101431.28;5044267;28;20050;-79
2022/04/13 06:31:27;;;;;;;5.70;3.30;;;;;;;22.15;36.67;101442.63;5074516;28;20505;-79
2022/04/13 06:33:52;;;;;;;4.65;3.10;;;;;;;22.08;37.03;101428.41;5026345;28;20040;-78
2022/04/13 06:36:19;;;;;;;5.22;3.30;;;;;;;22.07;36.66;101433.91;5061509;28;20048;-78
2022/04/13 06:38:45;;;;;;;5.20;3.10;;;;;;;22.10;37.11;101458.25;5036293;28;20036;-77
2022/04/13 06:41:11;;;;;;;3.75;2.70;;;;;;;22.08;36.85;101457.59;5037686;28;20096;-77
2022/04/13 06:43:37;;;;;;;3.08;2.70;;;;;;;22.02;37.21;101453.78;5039234;28;20040;-78
2022/04/13 06:46:03;;;;;;;4.05;3.00;;;;;;;22.06;36.85;101459.59;5078048;28;20562;-78
2022/04/13 06:48:29;;;;;;;3.03;2.75;;;;;;;22.06;37.00;101461.41;5042900;28;20032;-77
2022/04/13 06:50:54;;;;;;;4.13;2.92;;;;;;;22.03;37.22;101463.41;5071448;28;20086;-77
2022/04/13 06:53:20;;;;;;;5.18;3.00;;;;;;;22.03;37.23;101473.19;5043237;28;20035;-77
2022/04/13 06:55:47;;;;;;;3.55;2.92;;;;;;;22.02;37.21;101480.31;5067607;28;20042;-77
2022/04/13 06:58:16;;;;;;;3.60;2.70;;;;;;;22.00;37.29;101476.19;5034148;28;22059;-76
2022/04/13 07:00:42;;;;;;;3.35;2.80;;;;;;;21.97;37.43;101479.22;5055758;28;20552;-77
2022/04/13 07:03:08;;;;;;;3.47;2.58;;;;;;;21.79;37.34;101449.53;5039096;28;20922;-77
2022/04/13 07:05:34;;;;;;;4.28;3.10;;;;;;;21.92;37.58;101482.41;5035043;28;20082;-77
2022/04/13 07:08:03;;;;;;;4.90;3.00;;;;;;;21.86;37.58;101469.84;5069709;28;20515;-77
2022/04/13 07:10:30;;;;;;;4.53;3.13;;;;;;;21.82;37.55;101462.41;5018293;28;20037;-77
2022/04/13 07:12:56;;;;;;;4.00;3.00;;;;;;;21.87;37.69;101478.63;5067399;28;20040;-76
2022/04/13 07:15:22;;;;;;;4.25;3.10;;;;;;;21.77;38.04;101460.31;5037566;28;20081;-76
2022/04/13 07:17:48;;;;;;;4.15;2.78;;;;;;;21.88;37.95;101475.78;5067505;28;20032;-75
2022/04/13 07:20:15;;;;;;;6.32;3.38;;;;;;;21.83;38.06;101470.19;5037127;28;20040;-76
2022/04/13 07:22:48;;;;;;;4.50;3.15;;;;;;;21.92;37.80;101484.22;5076109;28;20038;-76
2022/04/13 07:25:15;;;;;;;5.03;3.22;;;;;;;21.91;37.82;101495.84;5027351;28;20039;-75
2022/04/13 07:27:41;;;;;;;4.38;2.80;;;;;;;21.97;37.87;101503.06;5078678;28;20052;-75
2022/04/13 07:30:07;;;;;;;4.07;2.95;;;;;;;22.12;37.61;101496.03;5046292;28;20462;-76
2022/04/13 07:32:33;;;;;;;5.05;3.00;;;;;;;22.30;37.39;101509.81;5075690;28;20040;-75
2022/04/13 07:34:59;;;;;;;6.43;3.30;;;;;;;22.36;37.41;101516.22;5027507;28;20047;-76
2022/04/13 07:37:27;;;;;;;4.85;3.40;;;;;;;22.32;37.51;101517.56;5077016;28;20115;-76
2022/04/13 07:39:53;;;;;;;4.38;3.45;;;;;;;22.29;37.85;101515.28;5035446;28;20044;-76
2022/04/13 07:42:23;;;;;;;4.03;3.00;;;;;;;22.28;37.47;101517.13;5054656;28;20068;-76
2022/04/13 07:44:49;;;;;;;6.88;3.42;;;;;;;22.27;37.71;101522.59;5043115;28;20044;-76
2022/04/13 07:47:14;;;;;;;5.90;3.10;;;;;;;22.15;37.93;101505.44;5072154;28;20044;-76
2022/04/13 07:49:43;;;;;;;4.53;3.00;;;;;;;22.20;37.72;101519.81;5037116;28;20036;-76
2022/04/13 07:52:09;;;;;;;5.00;3.20;;;;;;;22.08;38.00;101510.63;5075747;28;20044;-76
2022/04/13 07:54:36;;;;;;;4.15;2.97;;;;;;;22.15;37.80;101534.63;5037893;28;20131;-76
2022/04/13 07:57:01;;;;;;;4.32;3.10;;;;;;;22.07;37.85;101526.72;5078603;28;20040;-76
2022/04/13 07:59:30;;;;;;;6.45;3.08;;;;;;;22.08;38.02;101538.97;5036778;28;20031;-76
2022/04/13 08:01:56;;;;;;;5.43;3.60;;;;;;;22.06;38.22;101535.69;5071456;28;20072;-76
2022/04/13 08:04:21;;;;;;;4.38;2.97;;;;;;;22.03;38.02;101542.97;5023342;28;21508;-76
2022/04/13 08:06:47;;;;;;;4.50;2.88;;;;;;;21.87;38.11;101527.16;5060547;28;20124;-76
2022/04/13 08:09:12;;;;;;;5.30;3.55;;;;;;;21.94;38.37;101545.88;5077864;28;20047;-76
2022/04/13 08:11:38;;;;;;;3.42;2.90;;;;;;;21.93;38.37;101546.88;5039699;28;20501;-75
2022/04/13 08:14:03;;;;;;;3.92;2.92;;;;;;;21.95;38.18;101564.25;5080985;28;20042;-76
2022/04/13 08:16:29;;;;;;;4.47;3.25;;;;;;;21.92;38.13;101569.91;5033632;28;20047;-75
2022/04/13 08:18:55;;;;;;;4.25;2.70;;;;;;;21.91;38.69;101567.44;5074636;28;20125;-75
2022/04/13 08:21:21;;;;;;;4.10;3.03;;;;;;;21.87;38.48;101574.88;5045047;28;20043;-75
2022/04/13 08:23:46;;;;;;;4.20;3.00;;;;;;;21.88;38.32;101571.22;5064921;28;20056;-75
2022/04/13 08:26:12;;;;;;;5.03;3.30;;;;;;;21.77;38.60;101554.91;5044061;28;20052;-75
2022/04/13 08:28:38;;;;;;;3.55;2.63;;;;;;;21.87;38.29;101574.06;5080955;28;20490;-75
2022/04/13 08:31:04;;;;;;;6.72;2.88;;;;;;;21.83;38.53;101568.28;5046604;28;20078;-75
2022/04/13 08:33:32;;;;;;;4.55;2.85;;;;;;;21.84;38.59;101569.13;5075414;28;20035;-75
2022/04/13 08:35:57;;;;;;;5.78;2.92;;;;;;;21.80;38.33;101568.66;5029194;28;20032;-75
2022/04/13 08:38:23;;;;;;;4.68;2.67;;;;;;;21.90;38.33;101568.41;5044716;28;20035;-75
2022/04/13 08:40:59;;;;;;;3.83;2.78;;;;;;;21.90;38.66;101571.06;5045855;28;20115;-75
2022/04/13 08:43:35;;;;;;;4.10;3.00;;;;;;;21.88;38.69;101586.31;5070160;28;20032;-75
2022/04/13 08:46:07;;;;;;;4.78;2.72;;;;;;;21.84;38.53;101577.06;5052191;28;20059;-78
2022/04/13 08:48:33;;;;;;;3.63;3.10;;;;;;;21.85;38.48;101581.38;5069231;28;20199;-75
2022/04/13 08:51:02;;;;;;;4.45;2.90;;;;;;;21.92;38.47;101588.47;5046702;28;20402;-75
2022/04/13 08:53:30;;;;;;;4.45;2.83;;;;;;;21.94;38.59;101591.78;5077150;28;20036;-74
2022/04/13 08:55:58;;;;;;;4.82;2.67;;;;;;;21.93;38.38;101590.13;5043984;28;20060;-74
2022/04/13 08:58:49;;;;;;;5.63;3.25;;;;;;;21.98;38.29;101592.25;5073932;28;20040;-76
2022/04/13 09:01:29;;;;;;;4.10;2.92;;;;;;;22.02;38.33;101598.84;5033261;28;20033;-75
2022/04/13 09:03:57;;;;;;;;;;;;;;;22.11;38.13;101594.34;5072491;28;20060;-74
2022/04/13 09:06:25;;;;;;;4.03;2.92;;;;;;;22.13;38.09;101590.53;5033703;28;19923;-77
2022/04/13 09:08:58;;;;;;;3.35;2.83;;;;;;;22.19;37.95;101604.91;5045518;28;20048;-75
2022/04/13 09:11:24;;;;;;;3.78;2.90;;;;;;;22.19;37.76;101596.94;5051768;28;20553;-75
2022/04/13 09:13:51;;;;;;;4.43;3.00;;;;;;;22.16;38.13;101595.47;5077352;28;20126;-75
2022/04/13 09:16:17;;;;;;;3.42;2.95;;;;;;;22.00;37.77;101567.19;5046349;28;20052;-75
2022/04/13 09:18:43;;;;;;;4.13;2.63;;;;;;;22.13;38.04;101590.53;5048863;28;20041;-75
2022/04/13 09:21:13;;;;;;;7.32;3.28;;;;;;;22.18;37.90;101604.06;5056295;28;20040;-75
2022/04/13 09:23:39;;;;;;;;;;;;;;;22.19;38.12;101600.41;5067465;28;20043;-75
2022/04/13 09:26:07;;;;;;;3.70;2.75;;;;;;;22.20;38.05;101594.09;5065163;28;20375;-75
2022/04/13 09:28:33;;;;;;;5.07;2.75;;;;;;;22.20;38.41;101593.28;5052790;28;20032;-75
2022/04/13 09:30:59;;;;;;;4.18;2.92;;;;;;;22.16;38.31;101587.50;5060765;28;20847;-75
2022/04/13 09:33:25;;;;;;;3.65;2.60;;;;;;;22.22;38.35;101601.88;5048371;28;20055;-75
2022/04/13 09:35:53;;;;;;;3.15;2.67;;;;;;;22.23;38.34;101617.63;5074645;28;20627;-77
2022/04/13 09:38:19;;;;;;;3.58;2.60;;;;;;;22.19;38.47;101608.38;5029176;28;20619;-75
2022/04/13 09:40:45;;;;;;;2.63;2.40;;;;;;;22.24;38.15;101616.63;5074771;28;20048;-75
2022/04/13 09:43:15;;;;;;;3.38;2.60;;;;;;;22.24;38.36;101615.78;5042449;28;20047;-75
2022/04/13 09:45:49;;;;;;;3.70;2.42;;;;;;;22.25;38.42;101612.97;5076678;28;20420;-77
2022/04/13 09:48:26;;;;;;;3.72;2.53;;;;;;;22.26;38.03;101616.44;5022990;28;20619;-77
2022/04/13 09:50:56;;;;;;;4.30;2.90;;;;;;;22.39;37.77;101619.34;5072067;28;20256;-77
2022/04/13 09:53:21;;;;;;;3.55;2.60;;;;;;;22.47;37.90;101618.47;5043172;28;20028;-77
2022/04/13 09:55:59;;;;;;;4.70;2.63;;;;;;;22.40;37.85;101598.94;5075732;28;20717;-75
2022/04/13 09:58:26;;;;;;;3.17;2.42;;;;;;;22.48;37.64;101612.97;5028799;28;20040;-77
2022/04/13 10:00:54;;;;;;;3.72;2.53;;;;;;;22.48;37.63;101620.13;5079803;28;20036;-77
2022/04/13 10:03:22;;;;;;;4.55;2.53;;;;;;;22.46;37.81;101617.63;5045124;28;20052;-77
2022/04/13 10:05:50;;;;;;;3.90;2.63;;;;;;;22.43;37.82;101602.03;5071792;28;20032;-76
2022/04/13 10:08:23;;;;;;;2.40;2.20;;;;;;;22.45;37.89;101610.69;5032899;28;20048;-77
2022/04/13 10:10:50;;;;;;;3.05;2.42;;;;;;;22.44;38.08;101611.69;5074258;28;20084;-77
2022/04/13 10:13:35;;;;;;;3.75;2.88;;;;;;;22.46;38.17;101611.50;5042438;28;20035;-77
2022/04/13 10:16:07;;;;;;;4.43;2.42;;;;;;;22.46;37.87;101614.97;5058493;28;20048;-76
2022/04/13 10:18:56;;;;;;;3.17;2.47;;;;;;;22.45;38.33;101610.69;5029077;28;20043;-76
2022/04/13 10:21:45;;;;;;;3.30;2.38;;;;;;;22.45;37.95;101615.16;5059221;28;20089;-77
2022/04/13 10:24:24;;;;;;;3.47;2.58;;;;;;;22.48;38.13;101614.81;5058077;28;20536;-77
2022/04/13 10:27:01;;;;;;;2.65;2.42;;;;;;;22.45;38.23;101601.91;5057683;28;20047;-77
2022/04/13 10:29:27;;;;;;;2.67;2.40;;;;;;;22.42;38.20;101602.22;5053955;28;20040;-77
2022/04/13 10:32:14;;;;;;;3.80;2.40;;;;;;;22.45;38.02;101610.69;5050956;28;20093;-77
2022/04/13 10:34:42;;;;;;;4.85;2.50;;;;;;;22.40;38.07;101601.59;5072096;28;20032;-77
2022/04/13 10:37:16;;;;;;;3.17;2.50;;;;;;;22.46;38.11;101608.84;5027460;28;20332;-77
2022/04/13 10:39:45;;;;;;;4.03;2.60;;;;;;;22.39;38.17;101607.91;5059618;28;20050;-76
2022/04/13 10:42:12;;;;;;;3.45;2.60;;;;;;;22.38;37.99;101609.72;5044450;28;20040;-77
2022/04/13 10:44:58;;;;;;;3.63;2.17;;;;;;;22.39;38.02;101610.56;5074928;28;20082;-76
2022/04/13 10:47:54;;;;;;;4.03;2.85;;;;;;;22.37;37.94;101610.72;5040497;28;20086;-77
2022/04/13 10:50:30;;;;;;;4.15;2.60;;;;;;;22.39;38.27;101618.50;5069231;28;20074;-76
2022/04/13 10:53:20;;;;;;;4.35;2.78;;;;;;;22.26;38.04;101614.63;5047466;28;20041;-77
2022/04/13 10:55:56;;;;;;;3.58;2.35;;;;;;;22.33;38.02;101625.38;5069500;28;20386;-77
2022/04/13 10:58:28;;;;;;;3.55;2.55;;;;;;;22.28;37.99;101617.13;5045769;28;20044;-76
2022/04/13 11:01:01;;;;;;;2.67;2.13;;;;;;;22.33;37.92;101630.66;5060408;28;20038;-76
2022/04/13 11:03:32;;;;;;;2.40;2.20;;;;;;;22.10;38.20;101600.66;5028804;28;20050;-77
2022/04/13 11:05:58;;;;;;;4.00;2.60;;;;;;;22.31;38.24;101636.16;5054024;28;20040;-78
2022/04/13 11:08:51;;;;;;;3.60;2.40;;;;;;;22.39;38.09;101645.88;5044927;28;20068;-77
2022/04/13 11:11:19;;;;;;;3.45;2.33;;;;;;;22.36;38.58;101646.22;5065274;28;20032;-77
2022/04/13 11:13:49;;;;;;;2.20;1.98;;;;;;;22.33;38.24;101637.81;5043187;28;20040;-76
2022/04/13 11:16:17;;;;;;;3.20;2.33;;;;;;;22.39;38.11;101647.69;5066659;28;20090;-77
2022/04/13 11:19:05;;;;;;;4.32;2.58;;;;;;;22.41;38.38;101657.13;5022578;28;20082;-77
2022/04/13 11:21:32;;;;;;;3.40;2.30;;;;;;;22.36;38.39;101656.03;5073022;28;20060;-76
2022/04/13 11:23:58;;;;;;;3.00;2.15;;;;;;;22.29;38.40;101651.44;5039436;28;20039;-76
2022/04/13 11:26:48;;;;;;;2.75;2.30;;;;;;;22.31;38.49;101645.94;5072298;28;20139;-76
2022/04/13 11:29:23;;;;;;;2.85;2.10;;;;;;;22.44;38.36;101661.25;5034376;28;20047;-76